sensor_id;sensor_type;location;lat;lon;timestamp;P1;durP1;ratioP1;P2;durP2;ratioP2
11539;SDS011;5826;54.756;9.192;2022-08-21T00:02:16;3.67;;;2.33;;
11539;SDS011;5826;54.756;9.192;2022-08-21T00:04:43;3.00;;;2.28;;
11539;SDS011;5826;54.756;9.192;2022-08-21T00:07:09;3.95;;;2.45;;
11539;SDS011;5826;54.756;9.192;2022-08-21T00:09:34;4.63;;;2.83;;
11539;SDS011;5826;54.756;9.192;2022-08-21T00:12:00;2.95;;;2.47;;
11539;SDS011;5826;54.756;9.192;2022-08-21T00:14:26;3.80;;;2.47;;
11539;SDS011;5826;54.756;9.192;2022-08-21T00:16:52;3.28;;;2.40;;
11539;SDS011;5826;54.756;9.192;2022-08-21T00:19:17;3.10;;;2.65;;
11539;SDS011;5826;54.756;9.192;2022-08-21T00:21:43;3.00;;;2.38;;
11539;SDS011;5826;54.756;9.192;2022-08-21T00:24:08;3.40;;;2.40;;
11539;SDS011;5826;54.756;9.192;2022-08-21T00:26:34;2.75;;;2.30;;
11539;SDS011;5826;54.756;9.192;2022-08-21T00:28:59;3.13;;;2.40;;
11539;SDS011;5826;54.756;9.192;2022-08-21T00:31:25;2.80;;;2.17;;
11539;SDS011;5826;54.756;9.192;2022-08-21T00:33:50;4.20;;;2.08;;
11539;SDS011;5826;54.756;9.192;2022-08-21T00:36:16;4.00;;;2.63;;
11539;SDS011;5826;54.756;9.192;2022-08-21T00:38:42;3.45;;;2.50;;
11539;SDS011;5826;54.756;9.192;2022-08-21T00:41:09;3.17;;;2.35;;
11539;SDS011;5826;54.756;9.192;2022-08-21T00:43:36;2.88;;;2.30;;
11539;SDS011;5826;54.756;9.192;2022-08-21T00:46:03;3.33;;;2.58;;
11539;SDS011;5826;54.756;9.192;2022-08-21T00:48:29;4.00;;;2.60;;
11539;SDS011;5826;54.756;9.192;2022-08-21T00:50:56;3.78;;;2.83;;
11539;SDS011;5826;54.756;9.192;2022-08-21T00:53:26;3.92;;;2.58;;
11539;SDS011;5826;54.756;9.192;2022-08-21T00:55:52;5.05;;;3.08;;
11539;SDS011;5826;54.756;9.192;2022-08-21T00:58:19;2.92;;;2.28;;
11539;SDS011;5826;54.756;9.192;2022-08-21T01:00:46;4.03;;;2.58;;
11539;SDS011;5826;54.756;9.192;2022-08-21T01:03:15;5.30;;;2.53;;
11539;SDS011;5826;54.756;9.192;2022-08-21T01:05:42;5.30;;;2.63;;
11539;SDS011;5826;54.756;9.192;2022-08-21T01:08:09;4.47;;;2.63;;
11539;SDS011;5826;54.756;9.192;2022-08-21T01:10:35;3.10;;;2.60;;
11539;SDS011;5826;54.756;9.192;2022-08-21T01:13:02;4.57;;;3.00;;
11539;SDS011;5826;54.756;9.192;2022-08-21T01:15:32;3.47;;;2.50;;
11539;SDS011;5826;54.756;9.192;2022-08-21T01:18:00;4.07;;;2.60;;
11539;SDS011;5826;54.756;9.192;2022-08-21T01:20:28;3.33;;;2.50;;
11539;SDS011;5826;54.756;9.192;2022-08-21T01:22:54;4.50;;;2.60;;
11539;SDS011;5826;54.756;9.192;2022-08-21T01:25:19;4.65;;;2.63;;
11539;SDS011;5826;54.756;9.192;2022-08-21T01:27:45;4.03;;;2.65;;
11539;SDS011;5826;54.756;9.192;2022-08-21T01:30:16;4.35;;;2.63;;
11539;SDS011;5826;54.756;9.192;2022-08-21T01:32:44;4.00;;;2.40;;
11539;SDS011;5826;54.756;9.192;2022-08-21T01:35:11;3.78;;;2.20;;
11539;SDS011;5826;54.756;9.192;2022-08-21T01:37:38;4.18;;;2.58;;
11539;SDS011;5826;54.756;9.192;2022-08-21T01:40:04;4.28;;;2.63;;
11539;SDS011;5826;54.756;9.192;2022-08-21T01:42:30;3.20;;;2.55;;
11539;SDS011;5826;54.756;9.192;2022-08-21T01:44:56;3.63;;;2.58;;
11539;SDS011;5826;54.756;9.192;2022-08-21T01:47:22;5.88;;;2.78;;
11539;SDS011;5826;54.756;9.192;2022-08-21T01:49:48;4.57;;;2.88;;
11539;SDS011;5826;54.756;9.192;2022-08-21T01:52:14;4.00;;;2.70;;
11539;SDS011;5826;54.756;9.192;2022-08-21T01:54:40;5.13;;;2.53;;
11539;SDS011;5826;54.756;9.192;2022-08-21T01:57:06;3.95;;;2.60;;
11539;SDS011;5826;54.756;9.192;2022-08-21T01:59:31;4.05;;;2.25;;
11539;SDS011;5826;54.756;9.192;2022-08-21T02:01:59;4.32;;;2.63;;
11539;SDS011;5826;54.756;9.192;2022-08-21T02:04:24;3.88;;;2.30;;
11539;SDS011;5826;54.756;9.192;2022-08-21T02:06:50;3.88;;;2.80;;
11539;SDS011;5826;54.756;9.192;2022-08-21T02:09:16;3.28;;;2.45;;
11539;SDS011;5826;54.756;9.192;2022-08-21T02:11:42;3.03;;;2.60;;
11539;SDS011;5826;54.756;9.192;2022-08-21T02:14:08;3.33;;;2.13;;
11539;SDS011;5826;54.756;9.192;2022-08-21T02:16:36;4.50;;;2.75;;
11539;SDS011;5826;54.756;9.192;2022-08-21T02:19:02;3.35;;;2.40;;
11539;SDS011;5826;54.756;9.192;2022-08-21T02:21:28;3.28;;;2.60;;
11539;SDS011;5826;54.756;9.192;2022-08-21T02:23:53;3.25;;;2.50;;
11539;SDS011;5826;54.756;9.192;2022-08-21T02:26:19;3.95;;;2.88;;
11539;SDS011;5826;54.756;9.192;2022-08-21T02:28:44;3.58;;;2.55;;
11539;SDS011;5826;54.756;9.192;2022-08-21T02:31:10;5.07;;;2.90;;
11539;SDS011;5826;54.756;9.192;2022-08-21T02:33:36;3.70;;;2.80;;
11539;SDS011;5826;54.756;9.192;2022-08-21T02:36:02;3.60;;;2.92;;
11539;SDS011;5826;54.756;9.192;2022-08-21T02:38:29;4.10;;;3.00;;
11539;SDS011;5826;54.756;9.192;2022-08-21T02:40:58;4.30;;;2.78;;
11539;SDS011;5826;54.756;9.192;2022-08-21T02:43:24;4.30;;;2.50;;
11539;SDS011;5826;54.756;9.192;2022-08-21T02:45:51;4.78;;;3.00;;
11539;SDS011;5826;54.756;9.192;2022-08-21T02:48:20;4.60;;;3.03;;
11539;SDS011;5826;54.756;9.192;2022-08-21T02:50:51;3.72;;;2.83;;
11539;SDS011;5826;54.756;9.192;2022-08-21T02:53:19;4.07;;;2.60;;
11539;SDS011;5826;54.756;9.192;2022-08-21T02:55:46;4.25;;;2.92;;
11539;SDS011;5826;54.756;9.192;2022-08-21T02:58:13;3.92;;;2.60;;
11539;SDS011;5826;54.756;9.192;2022-08-21T03:00:41;3.92;;;2.67;;
11539;SDS011;5826;54.756;9.192;2022-08-21T03:03:08;3.80;;;3.05;;
11539;SDS011;5826;54.756;9.192;2022-08-21T03:05:35;3.97;;;3.10;;
11539;SDS011;5826;54.756;9.192;2022-08-21T03:08:06;5.40;;;3.42;;
11539;SDS011;5826;54.756;9.192;2022-08-21T03:10:36;3.58;;;2.88;;
11539;SDS011;5826;54.756;9.192;2022-08-21T03:13:04;3.70;;;3.25;;
11539;SDS011;5826;54.756;9.192;2022-08-21T03:15:30;4.40;;;3.08;;
11539;SDS011;5826;54.756;9.192;2022-08-21T03:17:56;3.80;;;3.38;;
11539;SDS011;5826;54.756;9.192;2022-08-21T03:20:23;3.17;;;2.88;;
11539;SDS011;5826;54.756;9.192;2022-08-21T03:22:51;4.03;;;3.50;;
11539;SDS011;5826;54.756;9.192;2022-08-21T03:25:18;3.95;;;2.95;;
11539;SDS011;5826;54.756;9.192;2022-08-21T03:27:45;4.45;;;3.30;;
11539;SDS011;5826;54.756;9.192;2022-08-21T03:30:12;4.47;;;3.35;;
11539;SDS011;5826;54.756;9.192;2022-08-21T03:32:37;4.28;;;3.20;;
11539;SDS011;5826;54.756;9.192;2022-08-21T03:35:03;4.47;;;3.50;;
11539;SDS011;5826;54.756;9.192;2022-08-21T03:37:29;4.55;;;3.05;;
11539;SDS011;5826;54.756;9.192;2022-08-21T03:39:55;4.18;;;3.15;;
11539;SDS011;5826;54.756;9.192;2022-08-21T03:42:21;3.47;;;3.10;;
11539;SDS011;5826;54.756;9.192;2022-08-21T03:44:48;4.68;;;2.90;;
11539;SDS011;5826;54.756;9.192;2022-08-21T03:47:13;4.35;;;3.30;;
11539;SDS011;5826;54.756;9.192;2022-08-21T03:49:39;3.70;;;3.33;;
11539;SDS011;5826;54.756;9.192;2022-08-21T03:52:06;4.40;;;3.10;;
11539;SDS011;5826;54.756;9.192;2022-08-21T03:54:31;3.58;;;2.85;;
11539;SDS011;5826;54.756;9.192;2022-08-21T03:56:57;3.95;;;3.50;;
11539;SDS011;5826;54.756;9.192;2022-08-21T03:59:22;6.28;;;3.15;;
11539;SDS011;5826;54.756;9.192;2022-08-21T04:01:53;4.78;;;3.10;;
11539;SDS011;5826;54.756;9.192;2022-08-21T04:04:20;4.07;;;3.33;;
11539;SDS011;5826;54.756;9.192;2022-08-21T04:06:46;4.85;;;3.08;;
11539;SDS011;5826;54.756;9.192;2022-08-21T04:09:11;4.53;;;2.88;;
11539;SDS011;5826;54.756;9.192;2022-08-21T04:11:37;5.10;;;3.35;;
11539;SDS011;5826;54.756;9.192;2022-08-21T04:14:02;4.82;;;2.80;;
11539;SDS011;5826;54.756;9.192;2022-08-21T04:16:29;4.80;;;3.20;;
11539;SDS011;5826;54.756;9.192;2022-08-21T04:18:55;2.83;;;2.55;;
11539;SDS011;5826;54.756;9.192;2022-08-21T04:21:21;3.72;;;2.55;;
11539;SDS011;5826;54.756;9.192;2022-08-21T04:23:47;3.85;;;2.65;;
11539;SDS011;5826;54.756;9.192;2022-08-21T04:26:13;2.85;;;2.58;;
11539;SDS011;5826;54.756;9.192;2022-08-21T04:28:38;3.55;;;2.80;;
11539;SDS011;5826;54.756;9.192;2022-08-21T04:31:04;5.32;;;3.00;;
11539;SDS011;5826;54.756;9.192;2022-08-21T04:33:30;4.72;;;2.67;;
11539;SDS011;5826;54.756;9.192;2022-08-21T04:35:55;4.57;;;2.67;;
11539;SDS011;5826;54.756;9.192;2022-08-21T04:38:21;3.00;;;2.70;;
11539;SDS011;5826;54.756;9.192;2022-08-21T04:40:47;4.72;;;2.88;;
11539;SDS011;5826;54.756;9.192;2022-08-21T04:43:14;4.43;;;2.28;;
11539;SDS011;5826;54.756;9.192;2022-08-21T04:45:40;2.67;;;2.28;;
11539;SDS011;5826;54.756;9.192;2022-08-21T04:48:08;3.55;;;2.47;;
11539;SDS011;5826;54.756;9.192;2022-08-21T04:50:36;3.85;;;2.80;;
11539;SDS011;5826;54.756;9.192;2022-08-21T04:53:07;3.38;;;2.45;;
11539;SDS011;5826;54.756;9.192;2022-08-21T04:55:42;3.55;;;2.30;;
11539;SDS011;5826;54.756;9.192;2022-08-21T04:58:09;3.25;;;2.50;;
11539;SDS011;5826;54.756;9.192;2022-08-21T05:00:38;3.17;;;2.35;;
11539;SDS011;5826;54.756;9.192;2022-08-21T05:03:03;2.83;;;2.33;;
11539;SDS011;5826;54.756;9.192;2022-08-21T05:05:31;3.28;;;2.20;;
11539;SDS011;5826;54.756;9.192;2022-08-21T05:07:57;3.13;;;2.45;;
11539;SDS011;5826;54.756;9.192;2022-08-21T05:10:25;3.17;;;2.33;;
11539;SDS011;5826;54.756;9.192;2022-08-21T05:12:51;4.68;;;2.60;;
11539;SDS011;5826;54.756;9.192;2022-08-21T05:15:17;3.35;;;2.45;;
11539;SDS011;5826;54.756;9.192;2022-08-21T05:17:43;3.17;;;2.35;;
11539;SDS011;5826;54.756;9.192;2022-08-21T05:20:09;2.85;;;2.53;;
11539;SDS011;5826;54.756;9.192;2022-08-21T05:22:36;3.35;;;2.17;;
11539;SDS011;5826;54.756;9.192;2022-08-21T05:25:02;4.93;;;2.60;;
11539;SDS011;5826;54.756;9.192;2022-08-21T05:27:29;3.83;;;2.67;;
11539;SDS011;5826;54.756;9.192;2022-08-21T05:29:55;3.95;;;2.53;;
11539;SDS011;5826;54.756;9.192;2022-08-21T05:32:21;3.05;;;2.67;;
11539;SDS011;5826;54.756;9.192;2022-08-21T05:34:47;2.70;;;2.15;;
11539;SDS011;5826;54.756;9.192;2022-08-21T05:37:12;3.65;;;2.50;;
11539;SDS011;5826;54.756;9.192;2022-08-21T05:39:38;2.65;;;2.08;;
11539;SDS011;5826;54.756;9.192;2022-08-21T05:42:04;4.07;;;2.20;;
11539;SDS011;5826;54.756;9.192;2022-08-21T05:44:30;3.92;;;2.10;;
11539;SDS011;5826;54.756;9.192;2022-08-21T05:47:02;3.50;;;2.40;;
11539;SDS011;5826;54.756;9.192;2022-08-21T05:49:29;4.72;;;2.55;;
11539;SDS011;5826;54.756;9.192;2022-08-21T05:51:55;7.03;;;3.10;;
11539;SDS011;5826;54.756;9.192;2022-08-21T05:54:20;4.68;;;2.10;;
11539;SDS011;5826;54.756;9.192;2022-08-21T05:56:46;2.20;;;1.80;;
11539;SDS011;5826;54.756;9.192;2022-08-21T05:59:11;4.53;;;2.00;;
11539;SDS011;5826;54.756;9.192;2022-08-21T06:01:37;2.00;;;1.52;;
11539;SDS011;5826;54.756;9.192;2022-08-21T06:04:03;2.00;;;1.50;;
11539;SDS011;5826;54.756;9.192;2022-08-21T06:06:29;3.75;;;2.00;;
11539;SDS011;5826;54.756;9.192;2022-08-21T06:08:55;3.10;;;2.20;;
11539;SDS011;5826;54.756;9.192;2022-08-21T06:11:20;2.42;;;1.50;;
11539;SDS011;5826;54.756;9.192;2022-08-21T06:13:46;2.13;;;1.52;;
11539;SDS011;5826;54.756;9.192;2022-08-21T06:16:13;2.33;;;1.50;;
11539;SDS011;5826;54.756;9.192;2022-08-21T06:18:40;4.10;;;1.60;;
11539;SDS011;5826;54.756;9.192;2022-08-21T06:21:06;3.28;;;1.80;;
11539;SDS011;5826;54.756;9.192;2022-08-21T06:23:32;3.15;;;1.70;;
11539;SDS011;5826;54.756;9.192;2022-08-21T06:25:58;2.88;;;1.70;;
11539;SDS011;5826;54.756;9.192;2022-08-21T06:28:24;3.25;;;1.70;;
11539;SDS011;5826;54.756;9.192;2022-08-21T06:30:49;3.28;;;1.63;;
11539;SDS011;5826;54.756;9.192;2022-08-21T06:33:15;2.42;;;1.27;;
11539;SDS011;5826;54.756;9.192;2022-08-21T06:35:40;3.40;;;1.60;;
11539;SDS011;5826;54.756;9.192;2022-08-21T06:38:06;2.95;;;1.50;;
11539;SDS011;5826;54.756;9.192;2022-08-21T06:40:31;2.75;;;1.55;;
11539;SDS011;5826;54.756;9.192;2022-08-21T06:42:57;3.60;;;1.73;;
11539;SDS011;5826;54.756;9.192;2022-08-21T06:45:29;3.92;;;1.88;;
11539;SDS011;5826;54.756;9.192;2022-08-21T06:47:55;2.10;;;1.40;;
11539;SDS011;5826;54.756;9.192;2022-08-21T06:50:20;3.80;;;1.83;;
11539;SDS011;5826;54.756;9.192;2022-08-21T06:52:46;2.97;;;1.40;;
11539;SDS011;5826;54.756;9.192;2022-08-21T06:55:11;3.17;;;1.42;;
11539;SDS011;5826;54.756;9.192;2022-08-21T06:57:37;5.55;;;2.00;;
11539;SDS011;5826;54.756;9.192;2022-08-21T07:00:04;3.45;;;1.60;;
11539;SDS011;5826;54.756;9.192;2022-08-21T07:02:30;4.97;;;2.00;;
11539;SDS011;5826;54.756;9.192;2022-08-21T07:04:57;3.08;;;1.65;;
11539;SDS011;5826;54.756;9.192;2022-08-21T07:07:23;3.17;;;1.50;;
11539;SDS011;5826;54.756;9.192;2022-08-21T07:09:48;4.32;;;1.80;;
11539;SDS011;5826;54.756;9.192;2022-08-21T07:12:14;2.88;;;1.42;;
11539;SDS011;5826;54.756;9.192;2022-08-21T07:14:39;2.97;;;1.60;;
11539;SDS011;5826;54.756;9.192;2022-08-21T07:17:05;2.47;;;1.60;;
11539;SDS011;5826;54.756;9.192;2022-08-21T07:19:30;2.13;;;1.40;;
11539;SDS011;5826;54.756;9.192;2022-08-21T07:21:57;3.33;;;1.52;;
11539;SDS011;5826;54.756;9.192;2022-08-21T07:24:25;2.70;;;1.77;;
11539;SDS011;5826;54.756;9.192;2022-08-21T07:26:50;3.00;;;2.03;;
11539;SDS011;5826;54.756;9.192;2022-08-21T07:29:16;3.63;;;1.80;;
11539;SDS011;5826;54.756;9.192;2022-08-21T07:31:42;2.97;;;1.80;;
11539;SDS011;5826;54.756;9.192;2022-08-21T07:34:07;4.10;;;2.10;;
11539;SDS011;5826;54.756;9.192;2022-08-21T07:36:33;6.65;;;2.00;;
11539;SDS011;5826;54.756;9.192;2022-08-21T07:38:59;4.38;;;2.10;;
11539;SDS011;5826;54.756;9.192;2022-08-21T07:41:28;2.83;;;1.73;;
11539;SDS011;5826;54.756;9.192;2022-08-21T07:43:58;2.63;;;1.90;;
11539;SDS011;5826;54.756;9.192;2022-08-21T07:46:24;3.97;;;1.60;;
11539;SDS011;5826;54.756;9.192;2022-08-21T07:48:51;3.33;;;1.83;;
11539;SDS011;5826;54.756;9.192;2022-08-21T07:51:17;4.68;;;2.17;;
11539;SDS011;5826;54.756;9.192;2022-08-21T07:53:49;4.63;;;1.90;;
11539;SDS011;5826;54.756;9.192;2022-08-21T07:56:16;3.20;;;2.00;;
11539;SDS011;5826;54.756;9.192;2022-08-21T07:58:42;5.57;;;2.42;;
11539;SDS011;5826;54.756;9.192;2022-08-21T08:01:08;4.43;;;1.90;;
11539;SDS011;5826;54.756;9.192;2022-08-21T08:03:33;6.10;;;2.70;;
11539;SDS011;5826;54.756;9.192;2022-08-21T08:05:59;5.88;;;2.33;;
11539;SDS011;5826;54.756;9.192;2022-08-21T08:08:25;5.60;;;1.95;;
11539;SDS011;5826;54.756;9.192;2022-08-21T08:10:51;4.15;;;1.98;;
11539;SDS011;5826;54.756;9.192;2022-08-21T08:13:18;2.85;;;1.60;;
11539;SDS011;5826;54.756;9.192;2022-08-21T08:15:43;2.58;;;1.50;;
11539;SDS011;5826;54.756;9.192;2022-08-21T08:18:09;4.43;;;1.80;;
11539;SDS011;5826;54.756;9.192;2022-08-21T08:20:34;3.83;;;2.05;;
11539;SDS011;5826;54.756;9.192;2022-08-21T08:23:00;3.30;;;1.80;;
11539;SDS011;5826;54.756;9.192;2022-08-21T08:25:26;4.40;;;2.05;;
11539;SDS011;5826;54.756;9.192;2022-08-21T08:27:53;4.22;;;1.85;;
11539;SDS011;5826;54.756;9.192;2022-08-21T08:30:19;3.17;;;1.63;;
11539;SDS011;5826;54.756;9.192;2022-08-21T08:32:45;4.00;;;1.73;;
11539;SDS011;5826;54.756;9.192;2022-08-21T08:35:12;3.88;;;1.80;;
11539;SDS011;5826;54.756;9.192;2022-08-21T08:37:39;3.97;;;1.70;;
11539;SDS011;5826;54.756;9.192;2022-08-21T08:40:14;3.70;;;1.60;;
11539;SDS011;5826;54.756;9.192;2022-08-21T08:42:55;3.47;;;1.73;;
11539;SDS011;5826;54.756;9.192;2022-08-21T08:45:21;4.22;;;2.25;;
11539;SDS011;5826;54.756;9.192;2022-08-21T08:48:01;5.15;;;1.98;;
11539;SDS011;5826;54.756;9.192;2022-08-21T08:50:37;5.43;;;2.13;;
11539;SDS011;5826;54.756;9.192;2022-08-21T08:53:12;5.53;;;2.25;;
11539;SDS011;5826;54.756;9.192;2022-08-21T08:55:45;2.30;;;1.60;;
11539;SDS011;5826;54.756;9.192;2022-08-21T08:58:12;3.05;;;1.50;;
11539;SDS011;5826;54.756;9.192;2022-08-21T09:00:47;1.92;;;1.30;;
11539;SDS011;5826;54.756;9.192;2022-08-21T09:03:16;2.55;;;1.65;;
11539;SDS011;5826;54.756;9.192;2022-08-21T09:05:46;3.25;;;1.70;;
11539;SDS011;5826;54.756;9.192;2022-08-21T09:08:50;3.50;;;1.48;;
11539;SDS011;5826;54.756;9.192;2022-08-21T09:14:49;2.30;;;1.58;;
11539;SDS011;5826;54.756;9.192;2022-08-21T09:22:41;3.85;;;1.35;;
11539;SDS011;5826;54.756;9.192;2022-08-21T09:25:22;3.15;;;1.50;;
11539;SDS011;5826;54.756;9.192;2022-08-21T09:27:51;2.80;;;1.13;;
11539;SDS011;5826;54.756;9.192;2022-08-21T09:30:17;3.15;;;1.70;;
11539;SDS011;5826;54.756;9.192;2022-08-21T09:32:44;2.05;;;1.30;;
11539;SDS011;5826;54.756;9.192;2022-08-21T09:35:13;3.63;;;1.70;;
11539;SDS011;5826;54.756;9.192;2022-08-21T09:38:01;4.50;;;1.33;;
11539;SDS011;5826;54.756;9.192;2022-08-21T09:40:41;1.63;;;1.10;;
11539;SDS011;5826;54.756;9.192;2022-08-21T09:43:16;2.67;;;1.35;;
11539;SDS011;5826;54.756;9.192;2022-08-21T09:45:44;3.72;;;1.42;;
11539;SDS011;5826;54.756;9.192;2022-08-21T09:48:11;2.70;;;1.10;;
11539;SDS011;5826;54.756;9.192;2022-08-21T09:50:39;1.98;;;1.15;;
11539;SDS011;5826;54.756;9.192;2022-08-21T09:53:13;5.22;;;1.60;;
11539;SDS011;5826;54.756;9.192;2022-08-21T09:55:52;2.92;;;1.60;;
11539;SDS011;5826;54.756;9.192;2022-08-21T09:58:41;2.15;;;1.20;;
11539;SDS011;5826;54.756;9.192;2022-08-21T10:01:14;2.15;;;1.40;;
11539;SDS011;5826;54.756;9.192;2022-08-21T10:03:46;4.03;;;1.23;;
11539;SDS011;5826;54.756;9.192;2022-08-21T10:06:21;2.53;;;1.40;;
11539;SDS011;5826;54.756;9.192;2022-08-21T10:08:49;2.92;;;1.42;;
11539;SDS011;5826;54.756;9.192;2022-08-21T10:11:15;3.78;;;1.67;;
11539;SDS011;5826;54.756;9.192;2022-08-21T10:16:59;2.45;;;1.40;;
11539;SDS011;5826;54.756;9.192;2022-08-21T10:19:18;2.28;;;1.50;;
11539;SDS011;5826;54.756;9.192;2022-08-21T10:22:20;3.70;;;1.27;;
11539;SDS011;5826;54.756;9.192;2022-08-21T10:36:09;3.78;;;1.80;;
11539;SDS011;5826;54.756;9.192;2022-08-21T10:38:54;8.15;;;1.83;;
11539;SDS011;5826;54.756;9.192;2022-08-21T10:47:01;4.38;;;1.70;;
11539;SDS011;5826;54.756;9.192;2022-08-21T10:55:11;3.08;;;1.80;;
11539;SDS011;5826;54.756;9.192;2022-08-21T10:57:46;3.40;;;1.75;;
11539;SDS011;5826;54.756;9.192;2022-08-21T11:00:23;4.38;;;2.00;;
11539;SDS011;5826;54.756;9.192;2022-08-21T11:06:05;3.88;;;1.65;;
11539;SDS011;5826;54.756;9.192;2022-08-21T11:08:36;6.03;;;2.22;;
11539;SDS011;5826;54.756;9.192;2022-08-21T11:11:08;5.25;;;1.83;;
11539;SDS011;5826;54.756;9.192;2022-08-21T11:13:41;4.28;;;1.88;;
11539;SDS011;5826;54.756;9.192;2022-08-21T11:19:05;4.70;;;1.90;;
11539;SDS011;5826;54.756;9.192;2022-08-21T11:21:39;6.55;;;1.85;;
11539;SDS011;5826;54.756;9.192;2022-08-21T11:24:24;5.10;;;1.90;;
11539;SDS011;5826;54.756;9.192;2022-08-21T11:27:15;6.15;;;2.30;;
11539;SDS011;5826;54.756;9.192;2022-08-21T11:29:56;6.88;;;1.98;;
11539;SDS011;5826;54.756;9.192;2022-08-21T11:35:22;4.22;;;1.60;;
11539;SDS011;5826;54.756;9.192;2022-08-21T11:46:03;3.63;;;1.70;;
11539;SDS011;5826;54.756;9.192;2022-08-21T11:48:48;6.63;;;2.33;;
11539;SDS011;5826;54.756;9.192;2022-08-21T11:51:27;5.80;;;2.22;;
11539;SDS011;5826;54.756;9.192;2022-08-21T11:54:32;6.43;;;2.20;;
11539;SDS011;5826;54.756;9.192;2022-08-21T11:57:13;6.55;;;2.10;;
11539;SDS011;5826;54.756;9.192;2022-08-21T12:00:29;6.03;;;2.20;;
11539;SDS011;5826;54.756;9.192;2022-08-21T12:02:34;6.43;;;2.33;;
11539;SDS011;5826;54.756;9.192;2022-08-21T12:05:04;5.05;;;2.20;;
11539;SDS011;5826;54.756;9.192;2022-08-21T12:07:34;6.50;;;2.72;;
11539;SDS011;5826;54.756;9.192;2022-08-21T12:10:09;7.75;;;2.53;;
11539;SDS011;5826;54.756;9.192;2022-08-21T12:12:37;6.18;;;2.40;;
11539;SDS011;5826;54.756;9.192;2022-08-21T12:17:54;5.85;;;2.10;;
11539;SDS011;5826;54.756;9.192;2022-08-21T12:20:36;4.88;;;2.00;;
11539;SDS011;5826;54.756;9.192;2022-08-21T12:28:26;3.60;;;2.10;;
11539;SDS011;5826;54.756;9.192;2022-08-21T12:30:53;9.18;;;2.58;;
11539;SDS011;5826;54.756;9.192;2022-08-21T12:33:38;5.13;;;2.30;;
11539;SDS011;5826;54.756;9.192;2022-08-21T12:36:07;6.22;;;2.13;;
11539;SDS011;5826;54.756;9.192;2022-08-21T12:39:12;5.90;;;2.30;;
11539;SDS011;5826;54.756;9.192;2022-08-21T12:42:20;5.90;;;2.40;;
11539;SDS011;5826;54.756;9.192;2022-08-21T12:44:51;4.15;;;1.80;;
11539;SDS011;5826;54.756;9.192;2022-08-21T12:47:55;4.57;;;2.17;;
11539;SDS011;5826;54.756;9.192;2022-08-21T12:50:44;6.30;;;2.33;;
11539;SDS011;5826;54.756;9.192;2022-08-21T12:53:30;8.25;;;2.90;;
11539;SDS011;5826;54.756;9.192;2022-08-21T12:56:17;6.38;;;2.42;;
11539;SDS011;5826;54.756;9.192;2022-08-21T12:58:53;6.45;;;2.45;;
11539;SDS011;5826;54.756;9.192;2022-08-21T13:01:34;6.47;;;2.42;;
11539;SDS011;5826;54.756;9.192;2022-08-21T13:04:07;6.13;;;2.30;;
11539;SDS011;5826;54.756;9.192;2022-08-21T13:06:40;5.22;;;2.30;;
11539;SDS011;5826;54.756;9.192;2022-08-21T13:09:10;4.22;;;2.42;;
11539;SDS011;5826;54.756;9.192;2022-08-21T13:11:37;5.95;;;2.58;;
11539;SDS011;5826;54.756;9.192;2022-08-21T13:14:05;5.10;;;2.25;;
11539;SDS011;5826;54.756;9.192;2022-08-21T13:16:35;4.22;;;2.30;;
11539;SDS011;5826;54.756;9.192;2022-08-21T13:19:02;8.13;;;2.70;;
11539;SDS011;5826;54.756;9.192;2022-08-21T13:21:34;5.47;;;2.42;;
11539;SDS011;5826;54.756;9.192;2022-08-21T13:26:41;6.00;;;2.38;;
11539;SDS011;5826;54.756;9.192;2022-08-21T13:29:08;5.90;;;2.30;;
11539;SDS011;5826;54.756;9.192;2022-08-21T13:31:36;6.38;;;2.30;;
11539;SDS011;5826;54.756;9.192;2022-08-21T13:34:03;6.15;;;2.47;;
11539;SDS011;5826;54.756;9.192;2022-08-21T13:36:31;4.85;;;2.45;;
11539;SDS011;5826;54.756;9.192;2022-08-21T13:39:01;6.05;;;2.50;;
11539;SDS011;5826;54.756;9.192;2022-08-21T13:41:31;6.68;;;2.40;;
11539;SDS011;5826;54.756;9.192;2022-08-21T13:46:35;4.15;;;2.15;;
11539;SDS011;5826;54.756;9.192;2022-08-21T13:49:02;4.90;;;2.28;;
11539;SDS011;5826;54.756;9.192;2022-08-21T13:51:30;4.82;;;2.30;;
11539;SDS011;5826;54.756;9.192;2022-08-21T13:53:56;7.25;;;2.10;;
11539;SDS011;5826;54.756;9.192;2022-08-21T13:56:32;5.43;;;2.20;;
11539;SDS011;5826;54.756;9.192;2022-08-21T13:59:07;5.10;;;2.30;;
11539;SDS011;5826;54.756;9.192;2022-08-21T14:01:33;3.22;;;2.03;;
11539;SDS011;5826;54.756;9.192;2022-08-21T14:04:23;6.63;;;2.08;;
11539;SDS011;5826;54.756;9.192;2022-08-21T14:06:58;5.18;;;2.13;;
11539;SDS011;5826;54.756;9.192;2022-08-21T14:09:34;3.80;;;2.10;;
11539;SDS011;5826;54.756;9.192;2022-08-21T14:12:13;4.47;;;2.08;;
11539;SDS011;5826;54.756;9.192;2022-08-21T14:14:53;6.47;;;2.30;;
11539;SDS011;5826;54.756;9.192;2022-08-21T14:17:33;4.32;;;2.17;;
11539;SDS011;5826;54.756;9.192;2022-08-21T14:20:03;4.93;;;2.05;;
11539;SDS011;5826;54.756;9.192;2022-08-21T14:22:36;5.10;;;2.25;;
11539;SDS011;5826;54.756;9.192;2022-08-21T14:27:34;6.07;;;2.42;;
11539;SDS011;5826;54.756;9.192;2022-08-21T14:30:09;6.03;;;2.40;;
11539;SDS011;5826;54.756;9.192;2022-08-21T14:32:54;4.40;;;2.13;;
11539;SDS011;5826;54.756;9.192;2022-08-21T14:35:20;5.10;;;2.30;;
11539;SDS011;5826;54.756;9.192;2022-08-21T14:37:47;6.07;;;2.45;;
11539;SDS011;5826;54.756;9.192;2022-08-21T14:40:15;5.30;;;2.10;;
11539;SDS011;5826;54.756;9.192;2022-08-21T14:42:42;4.07;;;1.83;;
11539;SDS011;5826;54.756;9.192;2022-08-21T14:45:12;4.72;;;2.13;;
11539;SDS011;5826;54.756;9.192;2022-08-21T14:47:40;4.13;;;1.90;;
11539;SDS011;5826;54.756;9.192;2022-08-21T14:50:07;4.05;;;1.83;;
11539;SDS011;5826;54.756;9.192;2022-08-21T14:52:33;3.63;;;1.70;;
11539;SDS011;5826;54.756;9.192;2022-08-21T14:55:00;4.55;;;1.90;;
11539;SDS011;5826;54.756;9.192;2022-08-21T14:57:25;3.85;;;1.80;;
11539;SDS011;5826;54.756;9.192;2022-08-21T14:59:55;4.35;;;1.90;;
11539;SDS011;5826;54.756;9.192;2022-08-21T15:02:20;4.90;;;1.85;;
11539;SDS011;5826;54.756;9.192;2022-08-21T15:04:46;4.30;;;1.90;;
11539;SDS011;5826;54.756;9.192;2022-08-21T15:07:11;5.43;;;1.90;;
11539;SDS011;5826;54.756;9.192;2022-08-21T15:09:37;4.57;;;1.90;;
11539;SDS011;5826;54.756;9.192;2022-08-21T15:12:03;4.28;;;1.67;;
11539;SDS011;5826;54.756;9.192;2022-08-21T15:14:30;5.40;;;2.13;;
11539;SDS011;5826;54.756;9.192;2022-08-21T15:16:59;4.90;;;2.00;;
11539;SDS011;5826;54.756;9.192;2022-08-21T15:19:24;4.03;;;2.00;;
11539;SDS011;5826;54.756;9.192;2022-08-21T15:21:50;3.95;;;1.85;;
11539;SDS011;5826;54.756;9.192;2022-08-21T15:24:16;2.90;;;1.85;;
11539;SDS011;5826;54.756;9.192;2022-08-21T15:26:42;4.50;;;2.30;;
11539;SDS011;5826;54.756;9.192;2022-08-21T15:29:09;5.70;;;2.40;;
11539;SDS011;5826;54.756;9.192;2022-08-21T15:31:34;4.75;;;2.42;;
11539;SDS011;5826;54.756;9.192;2022-08-21T15:34:01;3.97;;;1.90;;
11539;SDS011;5826;54.756;9.192;2022-08-21T15:36:27;3.65;;;2.05;;
11539;SDS011;5826;54.756;9.192;2022-08-21T15:38:53;3.10;;;1.83;;
11539;SDS011;5826;54.756;9.192;2022-08-21T15:41:18;3.72;;;2.03;;
11539;SDS011;5826;54.756;9.192;2022-08-21T15:43:47;3.00;;;1.70;;
11539;SDS011;5826;54.756;9.192;2022-08-21T15:46:15;4.25;;;2.00;;
11539;SDS011;5826;54.756;9.192;2022-08-21T15:48:42;2.75;;;1.90;;
11539;SDS011;5826;54.756;9.192;2022-08-21T15:51:09;3.58;;;1.70;;
11539;SDS011;5826;54.756;9.192;2022-08-21T15:53:35;3.75;;;1.75;;
11539;SDS011;5826;54.756;9.192;2022-08-21T15:56:04;5.95;;;1.98;;
11539;SDS011;5826;54.756;9.192;2022-08-21T15:58:30;4.80;;;2.08;;
11539;SDS011;5826;54.756;9.192;2022-08-21T16:00:58;5.85;;;2.00;;
11539;SDS011;5826;54.756;9.192;2022-08-21T16:03:25;3.63;;;1.88;;
11539;SDS011;5826;54.756;9.192;2022-08-21T16:05:51;3.33;;;1.80;;
11539;SDS011;5826;54.756;9.192;2022-08-21T16:08:18;4.72;;;2.00;;
11539;SDS011;5826;54.756;9.192;2022-08-21T16:10:45;3.63;;;1.98;;
11539;SDS011;5826;54.756;9.192;2022-08-21T16:13:29;4.05;;;2.00;;
11539;SDS011;5826;54.756;9.192;2022-08-21T16:16:04;5.57;;;2.20;;
11539;SDS011;5826;54.756;9.192;2022-08-21T16:18:30;4.30;;;2.00;;
11539;SDS011;5826;54.756;9.192;2022-08-21T16:20:55;3.33;;;1.92;;